logo
Search for airport 
image banner adimage banner adimage banner ad
image banner ad

CYCX - Gagetown

Located in , Canada

ICAO - CYCX, IATA - YCX

Data provided by Airmate  

General information

Coordinates: N45°50'16" W66°26'12"
Elevation is 166 feet MSL.
Magnetic variation is -16.4444° East
View others Airports in New Brunswick

Operational data

Special qualification required
Current time UTC:
Current local time:
Weather
METAR: CYCX 251842Z 03012G20KT 15SM -SHRA SCT031 BKN060 15/10 A3034 RMK SC3SC4 DENSITY ALT -78FT LAST OBS /NEXT 251200 UTC SLP274
TAF: TAF CYCX 251440Z 2515/2603 04010G20KT P6SM FEW020 SCT250 TEMPO 2515/2516 BKN020 BKN250 FM251600 05010G20KT P6SM SCT040 TEMPO 2516/2523 BKN040 RMK NXT FCST BY 252100Z
View NOTAMs / SUP AIP / TFR affecting this airport [VIEW]
Communications frequencies: [VIEW]

Runways:

Airport contact information

Address: Canada

Satellite view of CYCX